Terminal Aerodrome Forecast
Issued by NWS Melbourne, FL

Current Version | Previous Version | Text Only | Print | Product List | Glossary On
Versions: 1 2 3 4 5 6 7 8 9 10 11 12 13 14 15 16 17 18 19 20
421
FTUS42 KMLB 281727
TAFMCO
TAF
KMCO 281727Z 2818/2918 29010KT P6SM SKC
     FM290100 27005KT P6SM SKC
     FM291000 31004KT P6SM SCT006
     FM291400 29007KT P6SM SCT025=

USA.gov is the U.S. government's official web portal to all federal, state and local government web resources and services.